Terminal Aerodrome Forecast
Issued by NWS Twin Cities, MN

Home | Current Version | Previous Version | Graphics & Text | Print | Product List | Glossary On
Versions: 1 2 3 4 5 6 7 8 9 10 11 12 13 14
449
FTUS43 KMPX 291446 AAA
TAFEAU
TAF AMD
KEAU 291446Z 2915/3012 VRB02KT P6SM BKN016 OVC050
     FM291800 05006KT P6SM SCT025 BKN050
     FM300200 VRB03KT P6SM SCT250=

USA.gov is the U.S. government's official web portal to all federal, state and local government web resources and services.